sensor_id;sensor_type;location;lat;lon;timestamp;P1;durP1;ratioP1;P2;durP2;ratioP2
24557;SDS011;12726;49.148;8.582;2024-01-15T00:02:09;44.08;;;16.05;;
24557;SDS011;12726;49.148;8.582;2024-01-15T00:04:54;52.58;;;17.85;;
24557;SDS011;12726;49.148;8.582;2024-01-15T00:07:40;46.00;;;17.60;;
24557;SDS011;12726;49.148;8.582;2024-01-15T00:10:25;45.70;;;16.80;;
24557;SDS011;12726;49.148;8.582;2024-01-15T00:13:11;55.53;;;19.38;;
24557;SDS011;12726;49.148;8.582;2024-01-15T00:15:56;59.33;;;19.17;;
24557;SDS011;12726;49.148;8.582;2024-01-15T00:18:43;50.78;;;18.00;;
24557;SDS011;12726;49.148;8.582;2024-01-15T00:21:28;42.42;;;17.88;;
24557;SDS011;12726;49.148;8.582;2024-01-15T00:24:15;55.08;;;17.30;;
24557;SDS011;12726;49.148;8.582;2024-01-15T00:27:01;40.47;;;15.43;;
24557;SDS011;12726;49.148;8.582;2024-01-15T00:29:46;46.38;;;15.50;;
24557;SDS011;12726;49.148;8.582;2024-01-15T00:32:31;44.15;;;15.00;;
24557;SDS011;12726;49.148;8.582;2024-01-15T00:35:18;49.50;;;16.42;;
24557;SDS011;12726;49.148;8.582;2024-01-15T00:38:04;42.85;;;15.60;;
24557;SDS011;12726;49.148;8.582;2024-01-15T00:40:49;53.50;;;17.35;;
24557;SDS011;12726;49.148;8.582;2024-01-15T00:43:34;47.88;;;17.23;;
24557;SDS011;12726;49.148;8.582;2024-01-15T00:46:20;53.58;;;18.02;;
24557;SDS011;12726;49.148;8.582;2024-01-15T00:49:05;47.00;;;16.83;;
24557;SDS011;12726;49.148;8.582;2024-01-15T00:51:52;49.45;;;17.17;;
24557;SDS011;12726;49.148;8.582;2024-01-15T00:54:37;50.45;;;15.80;;
24557;SDS011;12726;49.148;8.582;2024-01-15T00:57:23;50.10;;;17.33;;
24557;SDS011;12726;49.148;8.582;2024-01-15T01:00:09;48.67;;;16.67;;
24557;SDS011;12726;49.148;8.582;2024-01-15T01:02:55;44.33;;;14.70;;
24557;SDS011;12726;49.148;8.582;2024-01-15T01:05:41;41.80;;;15.45;;
24557;SDS011;12726;49.148;8.582;2024-01-15T01:08:28;47.97;;;16.65;;
24557;SDS011;12726;49.148;8.582;2024-01-15T01:11:13;46.05;;;16.02;;
24557;SDS011;12726;49.148;8.582;2024-01-15T01:13:59;48.38;;;16.85;;
24557;SDS011;12726;49.148;8.582;2024-01-15T01:16:45;42.72;;;14.93;;
24557;SDS011;12726;49.148;8.582;2024-01-15T01:19:30;44.35;;;16.63;;
24557;SDS011;12726;49.148;8.582;2024-01-15T01:22:15;41.85;;;14.75;;
24557;SDS011;12726;49.148;8.582;2024-01-15T01:25:02;40.60;;;14.82;;
24557;SDS011;12726;49.148;8.582;2024-01-15T01:27:48;53.13;;;18.27;;
24557;SDS011;12726;49.148;8.582;2024-01-15T01:30:33;44.58;;;15.68;;
24557;SDS011;12726;49.148;8.582;2024-01-15T01:33:18;44.60;;;16.35;;
24557;SDS011;12726;49.148;8.582;2024-01-15T01:36:06;44.17;;;16.40;;
24557;SDS011;12726;49.148;8.582;2024-01-15T01:38:53;51.95;;;17.02;;
24557;SDS011;12726;49.148;8.582;2024-01-15T01:41:39;47.47;;;15.88;;
24557;SDS011;12726;49.148;8.582;2024-01-15T01:44:25;42.53;;;15.50;;
24557;SDS011;12726;49.148;8.582;2024-01-15T01:47:10;45.55;;;17.30;;
24557;SDS011;12726;49.148;8.582;2024-01-15T01:49:58;42.38;;;15.90;;
24557;SDS011;12726;49.148;8.582;2024-01-15T01:52:43;46.25;;;17.63;;
24557;SDS011;12726;49.148;8.582;2024-01-15T01:55:31;41.30;;;15.85;;
24557;SDS011;12726;49.148;8.582;2024-01-15T01:58:20;42.08;;;15.88;;
24557;SDS011;12726;49.148;8.582;2024-01-15T02:01:06;42.13;;;14.77;;
24557;SDS011;12726;49.148;8.582;2024-01-15T02:03:51;39.05;;;15.82;;
24557;SDS011;12726;49.148;8.582;2024-01-15T02:06:37;36.60;;;14.63;;
24557;SDS011;12726;49.148;8.582;2024-01-15T02:09:22;44.20;;;16.30;;
24557;SDS011;12726;49.148;8.582;2024-01-15T02:12:08;43.55;;;15.00;;
24557;SDS011;12726;49.148;8.582;2024-01-15T02:14:54;40.55;;;16.20;;
24557;SDS011;12726;49.148;8.582;2024-01-15T02:20:43;41.88;;;15.10;;
24557;SDS011;12726;49.148;8.582;2024-01-15T02:23:30;43.28;;;14.98;;
24557;SDS011;12726;49.148;8.582;2024-01-15T02:26:15;46.33;;;16.33;;
24557;SDS011;12726;49.148;8.582;2024-01-15T02:29:00;37.95;;;14.32;;
24557;SDS011;12726;49.148;8.582;2024-01-15T02:31:46;38.00;;;15.13;;
24557;SDS011;12726;49.148;8.582;2024-01-15T02:34:31;39.88;;;15.18;;
24557;SDS011;12726;49.148;8.582;2024-01-15T02:37:16;37.33;;;13.63;;
24557;SDS011;12726;49.148;8.582;2024-01-15T02:40:04;42.70;;;15.40;;
24557;SDS011;12726;49.148;8.582;2024-01-15T02:42:49;37.10;;;14.05;;
24557;SDS011;12726;49.148;8.582;2024-01-15T02:45:34;35.28;;;13.52;;
24557;SDS011;12726;49.148;8.582;2024-01-15T02:48:20;33.80;;;12.02;;
24557;SDS011;12726;49.148;8.582;2024-01-15T02:51:05;38.38;;;13.55;;
24557;SDS011;12726;49.148;8.582;2024-01-15T02:53:51;43.13;;;14.35;;
24557;SDS011;12726;49.148;8.582;2024-01-15T02:56:38;30.40;;;13.45;;
24557;SDS011;12726;49.148;8.582;2024-01-15T02:59:23;37.63;;;12.80;;
24557;SDS011;12726;49.148;8.582;2024-01-15T03:02:09;32.95;;;12.75;;
24557;SDS011;12726;49.148;8.582;2024-01-15T03:04:54;35.42;;;14.30;;
24557;SDS011;12726;49.148;8.582;2024-01-15T03:07:40;35.13;;;13.35;;
24557;SDS011;12726;49.148;8.582;2024-01-15T03:10:25;43.75;;;14.00;;
24557;SDS011;12726;49.148;8.582;2024-01-15T03:13:12;39.28;;;14.40;;
24557;SDS011;12726;49.148;8.582;2024-01-15T03:15:57;39.55;;;13.82;;
24557;SDS011;12726;49.148;8.582;2024-01-15T03:18:44;32.25;;;12.43;;
24557;SDS011;12726;49.148;8.582;2024-01-15T03:21:29;36.67;;;13.95;;
24557;SDS011;12726;49.148;8.582;2024-01-15T03:24:15;39.83;;;13.63;;
24557;SDS011;12726;49.148;8.582;2024-01-15T03:27:00;34.40;;;13.23;;
24557;SDS011;12726;49.148;8.582;2024-01-15T03:29:47;39.45;;;12.95;;
24557;SDS011;12726;49.148;8.582;2024-01-15T03:32:32;34.05;;;12.43;;
24557;SDS011;12726;49.148;8.582;2024-01-15T03:35:18;37.22;;;12.93;;
24557;SDS011;12726;49.148;8.582;2024-01-15T03:38:03;34.85;;;13.15;;
24557;SDS011;12726;49.148;8.582;2024-01-15T03:40:49;33.53;;;12.45;;
24557;SDS011;12726;49.148;8.582;2024-01-15T03:43:34;35.50;;;13.50;;
24557;SDS011;12726;49.148;8.582;2024-01-15T03:46:21;32.00;;;11.52;;
24557;SDS011;12726;49.148;8.582;2024-01-15T03:49:06;28.73;;;12.30;;
24557;SDS011;12726;49.148;8.582;2024-01-15T03:51:51;32.97;;;11.98;;
24557;SDS011;12726;49.148;8.582;2024-01-15T03:54:37;30.92;;;11.13;;
24557;SDS011;12726;49.148;8.582;2024-01-15T03:57:22;31.75;;;12.63;;
24557;SDS011;12726;49.148;8.582;2024-01-15T04:00:08;35.65;;;13.98;;
24557;SDS011;12726;49.148;8.582;2024-01-15T04:02:55;35.17;;;13.02;;
24557;SDS011;12726;49.148;8.582;2024-01-15T04:05:41;35.00;;;12.88;;
24557;SDS011;12726;49.148;8.582;2024-01-15T04:08:26;31.95;;;11.82;;
24557;SDS011;12726;49.148;8.582;2024-01-15T04:11:12;35.58;;;12.93;;
24557;SDS011;12726;49.148;8.582;2024-01-15T04:13:57;30.08;;;11.60;;
24557;SDS011;12726;49.148;8.582;2024-01-15T04:16:42;33.90;;;12.55;;
24557;SDS011;12726;49.148;8.582;2024-01-15T04:19:29;31.95;;;12.60;;
24557;SDS011;12726;49.148;8.582;2024-01-15T04:22:15;34.70;;;12.57;;
24557;SDS011;12726;49.148;8.582;2024-01-15T04:25:00;34.72;;;13.68;;
24557;SDS011;12726;49.148;8.582;2024-01-15T04:27:45;32.53;;;12.13;;
24557;SDS011;12726;49.148;8.582;2024-01-15T04:30:31;29.85;;;11.52;;
24557;SDS011;12726;49.148;8.582;2024-01-15T04:33:16;30.17;;;12.63;;
24557;SDS011;12726;49.148;8.582;2024-01-15T04:36:03;32.33;;;13.20;;
24557;SDS011;12726;49.148;8.582;2024-01-15T04:38:50;34.47;;;12.65;;
24557;SDS011;12726;49.148;8.582;2024-01-15T04:41:35;31.67;;;13.55;;
24557;SDS011;12726;49.148;8.582;2024-01-15T04:44:21;36.70;;;14.18;;
24557;SDS011;12726;49.148;8.582;2024-01-15T04:47:06;31.50;;;12.02;;
24557;SDS011;12726;49.148;8.582;2024-01-15T04:49:51;33.60;;;12.77;;
24557;SDS011;12726;49.148;8.582;2024-01-15T04:52:38;30.05;;;11.95;;
24557;SDS011;12726;49.148;8.582;2024-01-15T04:55:24;34.17;;;13.20;;
24557;SDS011;12726;49.148;8.582;2024-01-15T04:58:09;30.15;;;12.60;;
24557;SDS011;12726;49.148;8.582;2024-01-15T05:00:54;31.50;;;12.63;;
24557;SDS011;12726;49.148;8.582;2024-01-15T05:03:39;37.65;;;13.63;;
24557;SDS011;12726;49.148;8.582;2024-01-15T05:06:25;36.97;;;13.70;;
24557;SDS011;12726;49.148;8.582;2024-01-15T05:09:11;34.40;;;12.88;;
24557;SDS011;12726;49.148;8.582;2024-01-15T05:11:56;28.83;;;12.50;;
24557;SDS011;12726;49.148;8.582;2024-01-15T05:14:42;32.17;;;13.05;;
24557;SDS011;12726;49.148;8.582;2024-01-15T05:17:27;35.40;;;12.65;;
24557;SDS011;12726;49.148;8.582;2024-01-15T05:20:12;32.90;;;13.65;;
24557;SDS011;12726;49.148;8.582;2024-01-15T05:22:58;30.52;;;12.95;;
24557;SDS011;12726;49.148;8.582;2024-01-15T05:25:45;37.30;;;13.27;;
24557;SDS011;12726;49.148;8.582;2024-01-15T05:28:30;32.08;;;13.57;;
24557;SDS011;12726;49.148;8.582;2024-01-15T05:31:15;35.22;;;14.07;;
24557;SDS011;12726;49.148;8.582;2024-01-15T05:34:01;33.75;;;13.30;;
24557;SDS011;12726;49.148;8.582;2024-01-15T05:36:46;34.67;;;14.15;;
24557;SDS011;12726;49.148;8.582;2024-01-15T05:39:32;36.08;;;13.82;;
24557;SDS011;12726;49.148;8.582;2024-01-15T05:42:19;33.05;;;14.23;;
24557;SDS011;12726;49.148;8.582;2024-01-15T05:45:05;31.85;;;13.00;;
24557;SDS011;12726;49.148;8.582;2024-01-15T05:47:50;35.67;;;14.38;;
24557;SDS011;12726;49.148;8.582;2024-01-15T05:50:36;31.13;;;12.38;;
24557;SDS011;12726;49.148;8.582;2024-01-15T05:53:21;30.20;;;12.75;;
24557;SDS011;12726;49.148;8.582;2024-01-15T05:56:06;34.10;;;14.07;;
24557;SDS011;12726;49.148;8.582;2024-01-15T05:58:53;33.08;;;12.95;;
24557;SDS011;12726;49.148;8.582;2024-01-15T06:01:39;29.98;;;11.93;;
24557;SDS011;12726;49.148;8.582;2024-01-15T06:04:24;33.30;;;13.35;;
24557;SDS011;12726;49.148;8.582;2024-01-15T06:07:09;30.83;;;12.07;;
24557;SDS011;12726;49.148;8.582;2024-01-15T06:09:55;28.98;;;11.77;;
24557;SDS011;12726;49.148;8.582;2024-01-15T06:12:42;28.92;;;12.80;;
24557;SDS011;12726;49.148;8.582;2024-01-15T06:15:29;28.08;;;11.90;;
24557;SDS011;12726;49.148;8.582;2024-01-15T06:18:15;30.15;;;12.95;;
24557;SDS011;12726;49.148;8.582;2024-01-15T06:21:00;31.92;;;12.70;;
24557;SDS011;12726;49.148;8.582;2024-01-15T06:23:46;31.00;;;12.45;;
24557;SDS011;12726;49.148;8.582;2024-01-15T06:26:31;28.67;;;12.88;;
24557;SDS011;12726;49.148;8.582;2024-01-15T06:29:17;37.42;;;13.77;;
24557;SDS011;12726;49.148;8.582;2024-01-15T06:32:04;33.75;;;13.52;;
24557;SDS011;12726;49.148;8.582;2024-01-15T06:34:49;30.45;;;12.43;;
24557;SDS011;12726;49.148;8.582;2024-01-15T06:37:35;30.80;;;13.88;;
24557;SDS011;12726;49.148;8.582;2024-01-15T06:40:20;36.67;;;14.50;;
24557;SDS011;12726;49.148;8.582;2024-01-15T06:43:05;31.98;;;12.95;;
24557;SDS011;12726;49.148;8.582;2024-01-15T06:45:50;34.15;;;12.88;;
24557;SDS011;12726;49.148;8.582;2024-01-15T06:48:37;30.33;;;12.38;;
24557;SDS011;12726;49.148;8.582;2024-01-15T06:51:23;33.42;;;13.85;;
24557;SDS011;12726;49.148;8.582;2024-01-15T06:54:08;32.00;;;13.68;;
24557;SDS011;12726;49.148;8.582;2024-01-15T06:56:53;32.35;;;13.45;;
24557;SDS011;12726;49.148;8.582;2024-01-15T06:59:39;31.40;;;12.30;;
24557;SDS011;12726;49.148;8.582;2024-01-15T07:02:24;36.92;;;14.20;;
24557;SDS011;12726;49.148;8.582;2024-01-15T07:05:11;35.35;;;13.75;;
24557;SDS011;12726;49.148;8.582;2024-01-15T07:07:57;27.20;;;11.88;;
24557;SDS011;12726;49.148;8.582;2024-01-15T07:10:42;30.00;;;12.13;;
24557;SDS011;12726;49.148;8.582;2024-01-15T07:13:27;30.83;;;12.20;;
24557;SDS011;12726;49.148;8.582;2024-01-15T07:16:13;25.10;;;11.35;;
24557;SDS011;12726;49.148;8.582;2024-01-15T07:18:59;27.95;;;11.20;;
24557;SDS011;12726;49.148;8.582;2024-01-15T07:21:45;25.42;;;11.40;;
24557;SDS011;12726;49.148;8.582;2024-01-15T07:24:31;26.52;;;12.15;;
24557;SDS011;12726;49.148;8.582;2024-01-15T07:27:17;23.20;;;10.43;;
24557;SDS011;12726;49.148;8.582;2024-01-15T07:30:03;27.35;;;12.18;;
24557;SDS011;12726;49.148;8.582;2024-01-15T07:32:50;26.92;;;10.98;;
24557;SDS011;12726;49.148;8.582;2024-01-15T07:35:36;23.05;;;10.35;;
24557;SDS011;12726;49.148;8.582;2024-01-15T07:38:22;26.05;;;10.45;;
24557;SDS011;12726;49.148;8.582;2024-01-15T07:41:08;22.48;;;10.65;;
24557;SDS011;12726;49.148;8.582;2024-01-15T07:43:53;25.17;;;9.82;;
24557;SDS011;12726;49.148;8.582;2024-01-15T07:46:38;24.77;;;10.15;;
24557;SDS011;12726;49.148;8.582;2024-01-15T07:49:25;25.98;;;9.98;;
24557;SDS011;12726;49.148;8.582;2024-01-15T07:52:10;26.35;;;11.00;;
24557;SDS011;12726;49.148;8.582;2024-01-15T07:54:58;25.65;;;10.25;;
24557;SDS011;12726;49.148;8.582;2024-01-15T07:57:44;21.83;;;10.43;;
24557;SDS011;12726;49.148;8.582;2024-01-15T08:00:30;24.60;;;10.55;;
24557;SDS011;12726;49.148;8.582;2024-01-15T08:03:15;22.58;;;10.27;;
24557;SDS011;12726;49.148;8.582;2024-01-15T08:06:00;29.30;;;11.18;;
24557;SDS011;12726;49.148;8.582;2024-01-15T08:08:46;27.85;;;11.38;;
24557;SDS011;12726;49.148;8.582;2024-01-15T08:11:33;24.10;;;10.63;;
24557;SDS011;12726;49.148;8.582;2024-01-15T08:14:18;25.90;;;11.20;;
24557;SDS011;12726;49.148;8.582;2024-01-15T08:17:03;27.50;;;11.30;;
24557;SDS011;12726;49.148;8.582;2024-01-15T08:19:49;25.95;;;11.88;;
24557;SDS011;12726;49.148;8.582;2024-01-15T08:22:35;24.50;;;10.15;;
24557;SDS011;12726;49.148;8.582;2024-01-15T08:25:20;26.58;;;10.93;;
24557;SDS011;12726;49.148;8.582;2024-01-15T08:28:07;27.00;;;11.45;;
24557;SDS011;12726;49.148;8.582;2024-01-15T08:30:53;26.30;;;11.82;;
24557;SDS011;12726;49.148;8.582;2024-01-15T08:33:38;27.90;;;12.10;;
24557;SDS011;12726;49.148;8.582;2024-01-15T08:36:24;24.30;;;10.23;;
24557;SDS011;12726;49.148;8.582;2024-01-15T08:39:10;25.25;;;10.88;;
24557;SDS011;12726;49.148;8.582;2024-01-15T08:41:55;26.05;;;10.27;;
24557;SDS011;12726;49.148;8.582;2024-01-15T08:44:42;23.88;;;11.25;;
24557;SDS011;12726;49.148;8.582;2024-01-15T08:47:27;26.60;;;11.73;;
24557;SDS011;12726;49.148;8.582;2024-01-15T08:50:13;30.20;;;11.75;;
24557;SDS011;12726;49.148;8.582;2024-01-15T08:52:59;25.15;;;11.27;;
24557;SDS011;12726;49.148;8.582;2024-01-15T08:55:44;27.08;;;11.82;;
24557;SDS011;12726;49.148;8.582;2024-01-15T08:58:30;26.27;;;12.10;;
24557;SDS011;12726;49.148;8.582;2024-01-15T09:01:16;29.75;;;12.20;;
24557;SDS011;12726;49.148;8.582;2024-01-15T09:04:03;28.67;;;12.32;;
24557;SDS011;12726;49.148;8.582;2024-01-15T09:06:48;27.92;;;12.40;;
24557;SDS011;12726;49.148;8.582;2024-01-15T09:09:33;30.90;;;13.57;;
24557;SDS011;12726;49.148;8.582;2024-01-15T09:12:18;28.63;;;12.15;;
24557;SDS011;12726;49.148;8.582;2024-01-15T09:15:06;34.00;;;13.48;;
24557;SDS011;12726;49.148;8.582;2024-01-15T09:17:53;33.80;;;12.40;;
24557;SDS011;12726;49.148;8.582;2024-01-15T09:20:38;25.08;;;11.30;;
24557;SDS011;12726;49.148;8.582;2024-01-15T09:23:24;29.13;;;12.55;;
24557;SDS011;12726;49.148;8.582;2024-01-15T09:26:09;29.83;;;12.18;;
24557;SDS011;12726;49.148;8.582;2024-01-15T09:28:55;30.55;;;12.50;;
24557;SDS011;12726;49.148;8.582;2024-01-15T09:31:40;29.63;;;12.05;;
24557;SDS011;12726;49.148;8.582;2024-01-15T09:34:27;25.45;;;11.88;;
24557;SDS011;12726;49.148;8.582;2024-01-15T09:37:13;29.80;;;12.40;;
24557;SDS011;12726;49.148;8.582;2024-01-15T09:39:59;24.95;;;10.85;;
24557;SDS011;12726;49.148;8.582;2024-01-15T09:42:44;27.65;;;12.35;;
24557;SDS011;12726;49.148;8.582;2024-01-15T09:45:30;28.63;;;11.90;;
24557;SDS011;12726;49.148;8.582;2024-01-15T09:48:16;31.40;;;13.02;;
24557;SDS011;12726;49.148;8.582;2024-01-15T09:51:03;30.52;;;12.35;;
24557;SDS011;12726;49.148;8.582;2024-01-15T09:53:51;32.20;;;13.73;;
24557;SDS011;12726;49.148;8.582;2024-01-15T09:56:37;27.98;;;12.10;;
24557;SDS011;12726;49.148;8.582;2024-01-15T09:59:22;36.30;;;13.27;;
24557;SDS011;12726;49.148;8.582;2024-01-15T10:02:09;35.75;;;14.18;;
24557;SDS011;12726;49.148;8.582;2024-01-15T10:04:59;45.85;;;16.10;;
24557;SDS011;12726;49.148;8.582;2024-01-15T10:07:45;39.17;;;15.43;;
24557;SDS011;12726;49.148;8.582;2024-01-15T10:10:33;41.85;;;15.30;;
24557;SDS011;12726;49.148;8.582;2024-01-15T10:13:21;36.00;;;14.07;;
24557;SDS011;12726;49.148;8.582;2024-01-15T10:16:07;35.88;;;13.90;;
24557;SDS011;12726;49.148;8.582;2024-01-15T10:18:52;36.50;;;13.57;;
24557;SDS011;12726;49.148;8.582;2024-01-15T10:21:38;31.42;;;13.52;;
24557;SDS011;12726;49.148;8.582;2024-01-15T10:24:25;34.75;;;14.13;;
24557;SDS011;12726;49.148;8.582;2024-01-15T10:27:11;30.83;;;13.85;;
24557;SDS011;12726;49.148;8.582;2024-01-15T10:29:58;35.42;;;14.15;;
24557;SDS011;12726;49.148;8.582;2024-01-15T10:32:44;35.00;;;14.40;;
24557;SDS011;12726;49.148;8.582;2024-01-15T10:35:42;35.78;;;14.15;;
24557;SDS011;12726;49.148;8.582;2024-01-15T10:38:27;38.40;;;15.73;;
24557;SDS011;12726;49.148;8.582;2024-01-15T10:41:14;33.33;;;15.13;;
24557;SDS011;12726;49.148;8.582;2024-01-15T10:44:02;36.90;;;14.68;;
24557;SDS011;12726;49.148;8.582;2024-01-15T10:46:47;39.47;;;15.60;;
24557;SDS011;12726;49.148;8.582;2024-01-15T10:49:33;39.22;;;16.17;;
24557;SDS011;12726;49.148;8.582;2024-01-15T10:52:18;37.42;;;17.13;;
24557;SDS011;12726;49.148;8.582;2024-01-15T10:55:04;37.05;;;16.60;;
24557;SDS011;12726;49.148;8.582;2024-01-15T10:57:52;42.72;;;17.55;;
24557;SDS011;12726;49.148;8.582;2024-01-15T11:00:40;36.90;;;15.73;;
24557;SDS011;12726;49.148;8.582;2024-01-15T11:03:25;36.28;;;16.50;;
24557;SDS011;12726;49.148;8.582;2024-01-15T11:06:15;40.10;;;16.52;;
24557;SDS011;12726;49.148;8.582;2024-01-15T11:09:03;37.47;;;16.33;;
24557;SDS011;12726;49.148;8.582;2024-01-15T11:11:50;41.05;;;16.73;;
24557;SDS011;12726;49.148;8.582;2024-01-15T11:14:44;49.17;;;18.77;;
24557;SDS011;12726;49.148;8.582;2024-01-15T11:20:49;38.75;;;17.65;;
24557;SDS011;12726;49.148;8.582;2024-01-15T11:24:11;38.83;;;17.90;;
24557;SDS011;12726;49.148;8.582;2024-01-15T11:27:20;37.25;;;16.67;;
24557;SDS011;12726;49.148;8.582;2024-01-15T11:30:26;36.50;;;15.10;;
24557;SDS011;12726;49.148;8.582;2024-01-15T11:36:18;40.50;;;17.10;;
24557;SDS011;12726;49.148;8.582;2024-01-15T11:42:27;36.88;;;13.82;;
24557;SDS011;12726;49.148;8.582;2024-01-15T11:45:15;34.80;;;15.40;;
24557;SDS011;12726;49.148;8.582;2024-01-15T11:48:15;31.80;;;13.82;;
24557;SDS011;12726;49.148;8.582;2024-01-15T11:51:01;37.30;;;14.32;;
24557;SDS011;12726;49.148;8.582;2024-01-15T11:53:48;32.90;;;14.38;;
24557;SDS011;12726;49.148;8.582;2024-01-15T11:56:37;34.47;;;14.57;;
24557;SDS011;12726;49.148;8.582;2024-01-15T11:59:23;34.28;;;13.98;;
24557;SDS011;12726;49.148;8.582;2024-01-15T12:02:09;34.10;;;14.68;;
24557;SDS011;12726;49.148;8.582;2024-01-15T12:04:57;30.13;;;12.75;;
24557;SDS011;12726;49.148;8.582;2024-01-15T12:07:43;32.13;;;14.02;;
24557;SDS011;12726;49.148;8.582;2024-01-15T12:10:30;35.00;;;13.95;;
24557;SDS011;12726;49.148;8.582;2024-01-15T12:13:15;32.20;;;14.10;;
24557;SDS011;12726;49.148;8.582;2024-01-15T12:16:01;29.23;;;13.10;;
24557;SDS011;12726;49.148;8.582;2024-01-15T12:18:47;35.80;;;15.25;;
24557;SDS011;12726;49.148;8.582;2024-01-15T12:21:34;30.30;;;13.27;;
24557;SDS011;12726;49.148;8.582;2024-01-15T12:24:19;36.47;;;15.00;;
24557;SDS011;12726;49.148;8.582;2024-01-15T12:27:05;34.80;;;13.25;;
24557;SDS011;12726;49.148;8.582;2024-01-15T12:29:50;34.20;;;14.15;;
24557;SDS011;12726;49.148;8.582;2024-01-15T12:32:37;32.72;;;14.48;;
24557;SDS011;12726;49.148;8.582;2024-01-15T12:35:23;30.67;;;13.38;;
24557;SDS011;12726;49.148;8.582;2024-01-15T12:38:11;28.98;;;12.50;;
24557;SDS011;12726;49.148;8.582;2024-01-15T12:40:56;30.98;;;13.57;;
24557;SDS011;12726;49.148;8.582;2024-01-15T12:43:41;35.17;;;14.30;;
24557;SDS011;12726;49.148;8.582;2024-01-15T12:46:27;29.80;;;13.45;;
24557;SDS011;12726;49.148;8.582;2024-01-15T12:49:12;33.15;;;13.75;;
24557;SDS011;12726;49.148;8.582;2024-01-15T12:51:58;29.70;;;14.18;;
24557;SDS011;12726;49.148;8.582;2024-01-15T12:54:45;28.10;;;13.48;;
24557;SDS011;12726;49.148;8.582;2024-01-15T12:57:31;32.30;;;13.38;;
24557;SDS011;12726;49.148;8.582;2024-01-15T13:00:16;27.98;;;12.73;;
24557;SDS011;12726;49.148;8.582;2024-01-15T13:03:01;39.28;;;14.60;;
24557;SDS011;12726;49.148;8.582;2024-01-15T13:05:47;28.83;;;13.15;;
24557;SDS011;12726;49.148;8.582;2024-01-15T13:08:35;27.50;;;12.80;;
24557;SDS011;12726;49.148;8.582;2024-01-15T13:11:21;27.20;;;13.48;;
24557;SDS011;12726;49.148;8.582;2024-01-15T13:14:07;25.98;;;12.35;;
24557;SDS011;12726;49.148;8.582;2024-01-15T13:16:52;25.88;;;12.70;;
24557;SDS011;12726;49.148;8.582;2024-01-15T13:19:38;24.63;;;11.60;;
24557;SDS011;12726;49.148;8.582;2024-01-15T13:22:23;26.08;;;12.40;;
24557;SDS011;12726;49.148;8.582;2024-01-15T13:25:13;25.52;;;13.00;;
24557;SDS011;12726;49.148;8.582;2024-01-15T13:28:00;24.38;;;10.80;;
24557;SDS011;12726;49.148;8.582;2024-01-15T13:30:46;20.45;;;10.50;;
24557;SDS011;12726;49.148;8.582;2024-01-15T13:33:31;23.60;;;10.80;;
24557;SDS011;12726;49.148;8.582;2024-01-15T13:36:16;19.65;;;10.05;;
24557;SDS011;12726;49.148;8.582;2024-01-15T13:39:02;23.08;;;10.88;;
24557;SDS011;12726;49.148;8.582;2024-01-15T13:41:47;18.85;;;9.05;;
24557;SDS011;12726;49.148;8.582;2024-01-15T13:44:34;17.17;;;8.93;;
24557;SDS011;12726;49.148;8.582;2024-01-15T13:47:19;19.88;;;10.15;;
24557;SDS011;12726;49.148;8.582;2024-01-15T13:50:06;20.63;;;9.20;;
24557;SDS011;12726;49.148;8.582;2024-01-15T13:52:51;20.33;;;9.60;;
24557;SDS011;12726;49.148;8.582;2024-01-15T13:55:36;18.52;;;8.98;;
24557;SDS011;12726;49.148;8.582;2024-01-15T13:58:22;16.42;;;9.07;;
24557;SDS011;12726;49.148;8.582;2024-01-15T14:01:10;17.85;;;8.43;;
24557;SDS011;12726;49.148;8.582;2024-01-15T14:03:56;18.50;;;9.45;;
24557;SDS011;12726;49.148;8.582;2024-01-15T14:06:42;20.77;;;9.73;;
24557;SDS011;12726;49.148;8.582;2024-01-15T14:09:27;14.85;;;8.18;;
24557;SDS011;12726;49.148;8.582;2024-01-15T14:12:13;16.48;;;8.25;;
24557;SDS011;12726;49.148;8.582;2024-01-15T14:14:58;20.27;;;8.43;;
24557;SDS011;12726;49.148;8.582;2024-01-15T14:17:44;17.60;;;8.48;;
24557;SDS011;12726;49.148;8.582;2024-01-15T14:20:30;15.50;;;8.65;;
24557;SDS011;12726;49.148;8.582;2024-01-15T14:23:15;14.98;;;8.70;;
24557;SDS011;12726;49.148;8.582;2024-01-15T14:26:00;15.52;;;9.02;;
24557;SDS011;12726;49.148;8.582;2024-01-15T14:28:46;15.30;;;8.65;;
24557;SDS011;12726;49.148;8.582;2024-01-15T14:31:37;16.35;;;8.27;;
24557;SDS011;12726;49.148;8.582;2024-01-15T14:34:28;12.35;;;7.78;;
24557;SDS011;12726;49.148;8.582;2024-01-15T14:37:14;15.20;;;6.63;;
24557;SDS011;12726;49.148;8.582;2024-01-15T14:40:00;12.52;;;7.43;;
24557;SDS011;12726;49.148;8.582;2024-01-15T14:42:48;10.60;;;6.72;;
24557;SDS011;12726;49.148;8.582;2024-01-15T14:45:35;14.60;;;8.13;;
24557;SDS011;12726;49.148;8.582;2024-01-15T14:48:25;11.65;;;7.05;;
24557;SDS011;12726;49.148;8.582;2024-01-15T14:51:12;13.48;;;7.57;;
24557;SDS011;12726;49.148;8.582;2024-01-15T14:54:06;12.85;;;7.68;;
24557;SDS011;12726;49.148;8.582;2024-01-15T14:56:53;11.55;;;6.45;;
24557;SDS011;12726;49.148;8.582;2024-01-15T14:59:40;15.00;;;7.90;;
24557;SDS011;12726;49.148;8.582;2024-01-15T15:02:26;11.55;;;7.35;;
24557;SDS011;12726;49.148;8.582;2024-01-15T15:05:15;13.70;;;7.57;;
24557;SDS011;12726;49.148;8.582;2024-01-15T15:08:03;13.70;;;6.70;;
24557;SDS011;12726;49.148;8.582;2024-01-15T15:10:53;11.60;;;6.88;;
24557;SDS011;12726;49.148;8.582;2024-01-15T15:13:44;12.52;;;6.97;;
24557;SDS011;12726;49.148;8.582;2024-01-15T15:16:35;11.73;;;6.63;;
24557;SDS011;12726;49.148;8.582;2024-01-15T15:19:21;12.38;;;6.80;;
24557;SDS011;12726;49.148;8.582;2024-01-15T15:22:06;11.10;;;6.75;;
24557;SDS011;12726;49.148;8.582;2024-01-15T15:24:55;11.82;;;6.57;;
24557;SDS011;12726;49.148;8.582;2024-01-15T15:27:40;11.85;;;6.97;;
24557;SDS011;12726;49.148;8.582;2024-01-15T15:30:26;11.70;;;6.60;;
24557;SDS011;12726;49.148;8.582;2024-01-15T15:33:11;10.43;;;6.20;;
24557;SDS011;12726;49.148;8.582;2024-01-15T15:35:56;12.52;;;7.05;;
24557;SDS011;12726;49.148;8.582;2024-01-15T15:38:43;9.80;;;5.70;;
24557;SDS011;12726;49.148;8.582;2024-01-15T15:41:30;11.55;;;5.68;;
24557;SDS011;12726;49.148;8.582;2024-01-15T15:44:16;10.05;;;5.25;;
24557;SDS011;12726;49.148;8.582;2024-01-15T15:47:01;8.38;;;5.32;;
24557;SDS011;12726;49.148;8.582;2024-01-15T15:49:47;12.90;;;6.03;;
24557;SDS011;12726;49.148;8.582;2024-01-15T15:52:32;9.75;;;5.85;;
24557;SDS011;12726;49.148;8.582;2024-01-15T15:55:18;13.50;;;6.65;;
24557;SDS011;12726;49.148;8.582;2024-01-15T15:58:05;13.38;;;6.65;;
24557;SDS011;12726;49.148;8.582;2024-01-15T16:00:50;13.27;;;5.95;;
24557;SDS011;12726;49.148;8.582;2024-01-15T16:03:36;11.90;;;6.38;;
24557;SDS011;12726;49.148;8.582;2024-01-15T16:06:21;11.35;;;6.22;;
24557;SDS011;12726;49.148;8.582;2024-01-15T16:09:07;12.52;;;6.93;;
24557;SDS011;12726;49.148;8.582;2024-01-15T16:11:54;12.38;;;6.13;;
24557;SDS011;12726;49.148;8.582;2024-01-15T16:14:41;11.73;;;6.03;;
24557;SDS011;12726;49.148;8.582;2024-01-15T16:17:29;10.43;;;6.55;;
24557;SDS011;12726;49.148;8.582;2024-01-15T16:20:15;12.32;;;6.63;;
24557;SDS011;12726;49.148;8.582;2024-01-15T16:23:01;13.93;;;6.85;;
24557;SDS011;12726;49.148;8.582;2024-01-15T16:25:46;13.20;;;7.22;;
24557;SDS011;12726;49.148;8.582;2024-01-15T16:28:31;12.93;;;7.07;;